sensor_id;sensor_type;location;lat;lon;timestamp;P1;durP1;ratioP1;P2;durP2;ratioP2
77359;SDS011;66426;51.454;7.266;2023-01-09T00:00:52;2.40;;;1.38;;
77359;SDS011;66426;51.454;7.266;2023-01-09T00:01:53;2.72;;;1.30;;
77359;SDS011;66426;51.454;7.266;2023-01-09T00:02:54;2.28;;;1.38;;
77359;SDS011;66426;51.454;7.266;2023-01-09T00:03:55;3.80;;;1.30;;
77359;SDS011;66426;51.454;7.266;2023-01-09T00:04:56;4.07;;;1.50;;
77359;SDS011;66426;51.454;7.266;2023-01-09T00:05:57;2.08;;;1.30;;
77359;SDS011;66426;51.454;7.266;2023-01-09T00:06:58;1.88;;;1.20;;
77359;SDS011;66426;51.454;7.266;2023-01-09T00:07:59;1.63;;;1.30;;
77359;SDS011;66426;51.454;7.266;2023-01-09T00:09:00;1.98;;;1.33;;
77359;SDS011;66426;51.454;7.266;2023-01-09T00:10:03;1.60;;;1.10;;
77359;SDS011;66426;51.454;7.266;2023-01-09T00:11:05;3.42;;;1.20;;
77359;SDS011;66426;51.454;7.266;2023-01-09T00:12:06;1.80;;;1.17;;
77359;SDS011;66426;51.454;7.266;2023-01-09T00:13:09;6.28;;;1.30;;
77359;SDS011;66426;51.454;7.266;2023-01-09T00:14:10;1.50;;;1.30;;
77359;SDS011;66426;51.454;7.266;2023-01-09T00:15:11;2.17;;;0.93;;
77359;SDS011;66426;51.454;7.266;2023-01-09T00:16:14;2.25;;;1.30;;
77359;SDS011;66426;51.454;7.266;2023-01-09T00:17:15;1.90;;;1.20;;
77359;SDS011;66426;51.454;7.266;2023-01-09T00:18:16;2.47;;;1.50;;
77359;SDS011;66426;51.454;7.266;2023-01-09T00:19:17;1.27;;;1.02;;
77359;SDS011;66426;51.454;7.266;2023-01-09T00:20:18;1.33;;;1.15;;
77359;SDS011;66426;51.454;7.266;2023-01-09T00:21:19;3.40;;;1.10;;
77359;SDS011;66426;51.454;7.266;2023-01-09T00:22:20;0.98;;;0.57;;
77359;SDS011;66426;51.454;7.266;2023-01-09T00:23:21;1.33;;;0.98;;
77359;SDS011;66426;51.454;7.266;2023-01-09T00:24:22;2.40;;;0.88;;
77359;SDS011;66426;51.454;7.266;2023-01-09T00:25:23;0.80;;;0.80;;
77359;SDS011;66426;51.454;7.266;2023-01-09T00:26:24;1.63;;;1.15;;
77359;SDS011;66426;51.454;7.266;2023-01-09T00:27:25;1.98;;;0.70;;
77359;SDS011;66426;51.454;7.266;2023-01-09T00:28:29;0.93;;;0.90;;
77359;SDS011;66426;51.454;7.266;2023-01-09T00:29:30;0.98;;;0.98;;
77359;SDS011;66426;51.454;7.266;2023-01-09T00:30:31;0.88;;;0.88;;
77359;SDS011;66426;51.454;7.266;2023-01-09T00:31:34;0.80;;;0.80;;
77359;SDS011;66426;51.454;7.266;2023-01-09T00:32:35;0.90;;;0.80;;
77359;SDS011;66426;51.454;7.266;2023-01-09T00:33:37;1.58;;;0.80;;
77359;SDS011;66426;51.454;7.266;2023-01-09T00:34:41;0.65;;;0.63;;
77359;SDS011;66426;51.454;7.266;2023-01-09T00:35:43;1.35;;;0.77;;
77359;SDS011;66426;51.454;7.266;2023-01-09T00:36:44;0.85;;;0.70;;
77359;SDS011;66426;51.454;7.266;2023-01-09T00:37:45;0.98;;;0.90;;
77359;SDS011;66426;51.454;7.266;2023-01-09T00:38:46;1.08;;;0.90;;
77359;SDS011;66426;51.454;7.266;2023-01-09T00:39:47;0.90;;;0.75;;
77359;SDS011;66426;51.454;7.266;2023-01-09T00:40:48;0.82;;;0.70;;
77359;SDS011;66426;51.454;7.266;2023-01-09T00:41:50;0.70;;;0.70;;
77359;SDS011;66426;51.454;7.266;2023-01-09T00:42:54;0.98;;;0.90;;
77359;SDS011;66426;51.454;7.266;2023-01-09T00:43:57;1.35;;;0.98;;
77359;SDS011;66426;51.454;7.266;2023-01-09T00:45:03;0.75;;;0.75;;
77359;SDS011;66426;51.454;7.266;2023-01-09T00:46:07;1.10;;;1.00;;
77359;SDS011;66426;51.454;7.266;2023-01-09T00:47:11;1.38;;;0.80;;
77359;SDS011;66426;51.454;7.266;2023-01-09T00:48:17;1.80;;;0.75;;
77359;SDS011;66426;51.454;7.266;2023-01-09T00:49:26;0.82;;;0.82;;
77359;SDS011;66426;51.454;7.266;2023-01-09T00:50:30;1.20;;;1.05;;
77359;SDS011;66426;51.454;7.266;2023-01-09T00:51:32;0.93;;;0.73;;
77359;SDS011;66426;51.454;7.266;2023-01-09T00:52:34;0.95;;;0.68;;
77359;SDS011;66426;51.454;7.266;2023-01-09T00:53:37;1.55;;;0.90;;
77359;SDS011;66426;51.454;7.266;2023-01-09T00:54:41;1.77;;;1.00;;
77359;SDS011;66426;51.454;7.266;2023-01-09T00:55:43;0.60;;;0.60;;
77359;SDS011;66426;51.454;7.266;2023-01-09T00:56:44;1.25;;;0.90;;
77359;SDS011;66426;51.454;7.266;2023-01-09T00:57:45;1.02;;;0.93;;
77359;SDS011;66426;51.454;7.266;2023-01-09T00:58:47;0.75;;;0.68;;
77359;SDS011;66426;51.454;7.266;2023-01-09T00:59:49;1.38;;;0.80;;
77359;SDS011;66426;51.454;7.266;2023-01-09T01:00:51;0.82;;;0.80;;
77359;SDS011;66426;51.454;7.266;2023-01-09T01:01:52;0.68;;;0.68;;
77359;SDS011;66426;51.454;7.266;2023-01-09T01:02:54;0.77;;;0.77;;
77359;SDS011;66426;51.454;7.266;2023-01-09T01:03:55;5.05;;;1.10;;
77359;SDS011;66426;51.454;7.266;2023-01-09T01:04:56;0.50;;;0.50;;
77359;SDS011;66426;51.454;7.266;2023-01-09T01:06:16;0.65;;;0.60;;
77359;SDS011;66426;51.454;7.266;2023-01-09T01:07:35;1.60;;;0.70;;
77359;SDS011;66426;51.454;7.266;2023-01-09T01:08:40;0.55;;;0.55;;
77359;SDS011;66426;51.454;7.266;2023-01-09T01:09:42;0.50;;;0.50;;
77359;SDS011;66426;51.454;7.266;2023-01-09T01:10:43;0.50;;;0.50;;
77359;SDS011;66426;51.454;7.266;2023-01-09T01:11:44;0.77;;;0.77;;
77359;SDS011;66426;51.454;7.266;2023-01-09T01:12:46;1.08;;;0.60;;
77359;SDS011;66426;51.454;7.266;2023-01-09T01:13:48;1.08;;;0.80;;
77359;SDS011;66426;51.454;7.266;2023-01-09T01:14:51;0.57;;;0.57;;
77359;SDS011;66426;51.454;7.266;2023-01-09T01:15:52;0.65;;;0.55;;
77359;SDS011;66426;51.454;7.266;2023-01-09T01:16:53;0.63;;;0.63;;
77359;SDS011;66426;51.454;7.266;2023-01-09T01:17:56;0.47;;;0.47;;
77359;SDS011;66426;51.454;7.266;2023-01-09T01:18:57;0.77;;;0.70;;
77359;SDS011;66426;51.454;7.266;2023-01-09T01:19:58;1.48;;;0.60;;
77359;SDS011;66426;51.454;7.266;2023-01-09T01:20:59;0.70;;;0.45;;
77359;SDS011;66426;51.454;7.266;2023-01-09T01:22:00;0.52;;;0.52;;
77359;SDS011;66426;51.454;7.266;2023-01-09T01:23:01;0.50;;;0.50;;
77359;SDS011;66426;51.454;7.266;2023-01-09T01:24:02;0.73;;;0.57;;
77359;SDS011;66426;51.454;7.266;2023-01-09T01:25:04;0.60;;;0.60;;
77359;SDS011;66426;51.454;7.266;2023-01-09T01:26:05;0.70;;;0.70;;
77359;SDS011;66426;51.454;7.266;2023-01-09T01:27:07;0.93;;;0.63;;
77359;SDS011;66426;51.454;7.266;2023-01-09T01:28:08;0.60;;;0.55;;
77359;SDS011;66426;51.454;7.266;2023-01-09T01:29:10;1.45;;;0.77;;
77359;SDS011;66426;51.454;7.266;2023-01-09T01:30:12;0.50;;;0.50;;
77359;SDS011;66426;51.454;7.266;2023-01-09T01:31:15;0.63;;;0.52;;
77359;SDS011;66426;51.454;7.266;2023-01-09T01:32:17;0.73;;;0.70;;
77359;SDS011;66426;51.454;7.266;2023-01-09T01:33:19;0.70;;;0.68;;
77359;SDS011;66426;51.454;7.266;2023-01-09T01:34:20;0.82;;;0.73;;
77359;SDS011;66426;51.454;7.266;2023-01-09T01:35:21;0.73;;;0.73;;
77359;SDS011;66426;51.454;7.266;2023-01-09T01:36:22;0.50;;;0.50;;
77359;SDS011;66426;51.454;7.266;2023-01-09T01:37:23;0.40;;;0.40;;
77359;SDS011;66426;51.454;7.266;2023-01-09T01:38:24;0.77;;;0.68;;
77359;SDS011;66426;51.454;7.266;2023-01-09T01:39:25;0.30;;;0.30;;
77359;SDS011;66426;51.454;7.266;2023-01-09T01:40:26;2.25;;;0.70;;
77359;SDS011;66426;51.454;7.266;2023-01-09T01:41:28;0.63;;;0.45;;
77359;SDS011;66426;51.454;7.266;2023-01-09T01:42:29;1.40;;;0.68;;
77359;SDS011;66426;51.454;7.266;2023-01-09T01:44:59;0.75;;;0.60;;
77359;SDS011;66426;51.454;7.266;2023-01-09T01:46:04;0.40;;;0.40;;
77359;SDS011;66426;51.454;7.266;2023-01-09T01:47:05;0.60;;;0.60;;
77359;SDS011;66426;51.454;7.266;2023-01-09T01:48:07;0.68;;;0.68;;
77359;SDS011;66426;51.454;7.266;2023-01-09T01:49:12;0.70;;;0.60;;
77359;SDS011;66426;51.454;7.266;2023-01-09T01:50:18;0.63;;;0.63;;
77359;SDS011;66426;51.454;7.266;2023-01-09T01:51:24;0.50;;;0.50;;
77359;SDS011;66426;51.454;7.266;2023-01-09T01:52:28;0.50;;;0.50;;
77359;SDS011;66426;51.454;7.266;2023-01-09T01:53:32;0.30;;;0.30;;
77359;SDS011;66426;51.454;7.266;2023-01-09T01:54:36;0.73;;;0.70;;
77359;SDS011;66426;51.454;7.266;2023-01-09T01:55:38;0.70;;;0.70;;
77359;SDS011;66426;51.454;7.266;2023-01-09T01:56:43;0.60;;;0.60;;
77359;SDS011;66426;51.454;7.266;2023-01-09T01:57:49;1.88;;;0.50;;
77359;SDS011;66426;51.454;7.266;2023-01-09T01:58:54;0.80;;;0.75;;
77359;SDS011;66426;51.454;7.266;2023-01-09T01:59:58;0.82;;;0.80;;
77359;SDS011;66426;51.454;7.266;2023-01-09T02:01:02;0.73;;;0.73;;
77359;SDS011;66426;51.454;7.266;2023-01-09T02:02:05;0.60;;;0.60;;
77359;SDS011;66426;51.454;7.266;2023-01-09T02:03:07;0.40;;;0.40;;
77359;SDS011;66426;51.454;7.266;2023-01-09T02:04:09;0.55;;;0.55;;
77359;SDS011;66426;51.454;7.266;2023-01-09T02:05:12;0.85;;;0.50;;
77359;SDS011;66426;51.454;7.266;2023-01-09T02:06:13;0.80;;;0.80;;
77359;SDS011;66426;51.454;7.266;2023-01-09T02:07:15;1.92;;;0.90;;
77359;SDS011;66426;51.454;7.266;2023-01-09T02:08:16;0.55;;;0.55;;
77359;SDS011;66426;51.454;7.266;2023-01-09T02:09:17;0.60;;;0.60;;
77359;SDS011;66426;51.454;7.266;2023-01-09T02:10:22;0.40;;;0.40;;
77359;SDS011;66426;51.454;7.266;2023-01-09T02:11:24;2.65;;;0.57;;
77359;SDS011;66426;51.454;7.266;2023-01-09T02:12:26;0.50;;;0.50;;
77359;SDS011;66426;51.454;7.266;2023-01-09T02:13:27;1.50;;;0.75;;
77359;SDS011;66426;51.454;7.266;2023-01-09T02:14:30;1.73;;;0.77;;
77359;SDS011;66426;51.454;7.266;2023-01-09T02:15:33;0.68;;;0.60;;
77359;SDS011;66426;51.454;7.266;2023-01-09T02:16:42;0.50;;;0.50;;
77359;SDS011;66426;51.454;7.266;2023-01-09T02:18:04;0.82;;;0.63;;
77359;SDS011;66426;51.454;7.266;2023-01-09T02:19:31;1.10;;;0.50;;
77359;SDS011;66426;51.454;7.266;2023-01-09T02:20:54;0.75;;;0.50;;
77359;SDS011;66426;51.454;7.266;2023-01-09T02:22:01;0.40;;;0.40;;
77359;SDS011;66426;51.454;7.266;2023-01-09T02:23:31;0.95;;;0.60;;
77359;SDS011;66426;51.454;7.266;2023-01-09T02:24:53;0.50;;;0.50;;
77359;SDS011;66426;51.454;7.266;2023-01-09T02:27:30;0.98;;;0.60;;
77359;SDS011;66426;51.454;7.266;2023-01-09T02:28:51;0.40;;;0.38;;
77359;SDS011;66426;51.454;7.266;2023-01-09T02:30:24;0.82;;;0.38;;
77359;SDS011;66426;51.454;7.266;2023-01-09T02:31:30;0.30;;;0.30;;
77359;SDS011;66426;51.454;7.266;2023-01-09T02:32:41;2.13;;;0.47;;
77359;SDS011;66426;51.454;7.266;2023-01-09T02:33:47;1.23;;;0.50;;
77359;SDS011;66426;51.454;7.266;2023-01-09T02:34:57;0.47;;;0.47;;
77359;SDS011;66426;51.454;7.266;2023-01-09T02:36:15;0.25;;;0.25;;
77359;SDS011;66426;51.454;7.266;2023-01-09T02:37:24;0.40;;;0.40;;
77359;SDS011;66426;51.454;7.266;2023-01-09T02:38:34;1.33;;;0.68;;
77359;SDS011;66426;51.454;7.266;2023-01-09T02:39:48;0.60;;;0.35;;
77359;SDS011;66426;51.454;7.266;2023-01-09T02:40:55;0.45;;;0.40;;
77359;SDS011;66426;51.454;7.266;2023-01-09T02:42:02;1.75;;;0.70;;
77359;SDS011;66426;51.454;7.266;2023-01-09T02:43:08;1.08;;;0.40;;
77359;SDS011;66426;51.454;7.266;2023-01-09T02:44:14;0.98;;;0.55;;
77359;SDS011;66426;51.454;7.266;2023-01-09T02:45:16;1.63;;;0.70;;
77359;SDS011;66426;51.454;7.266;2023-01-09T02:46:19;0.95;;;0.60;;
77359;SDS011;66426;51.454;7.266;2023-01-09T02:47:35;0.60;;;0.60;;
77359;SDS011;66426;51.454;7.266;2023-01-09T02:48:39;0.60;;;0.57;;
77359;SDS011;66426;51.454;7.266;2023-01-09T02:49:43;0.77;;;0.35;;
77359;SDS011;66426;51.454;7.266;2023-01-09T02:50:49;1.45;;;0.65;;
77359;SDS011;66426;51.454;7.266;2023-01-09T02:52:01;0.25;;;0.25;;
77359;SDS011;66426;51.454;7.266;2023-01-09T02:53:23;1.02;;;0.50;;
77359;SDS011;66426;51.454;7.266;2023-01-09T02:54:40;3.00;;;0.80;;
77359;SDS011;66426;51.454;7.266;2023-01-09T02:55:52;0.90;;;0.80;;
77359;SDS011;66426;51.454;7.266;2023-01-09T02:57:07;1.13;;;0.55;;
77359;SDS011;66426;51.454;7.266;2023-01-09T02:58:18;1.75;;;1.00;;
77359;SDS011;66426;51.454;7.266;2023-01-09T02:59:34;0.75;;;0.75;;
77359;SDS011;66426;51.454;7.266;2023-01-09T03:00:51;3.20;;;0.98;;
77359;SDS011;66426;51.454;7.266;2023-01-09T03:03:35;4.03;;;0.88;;
77359;SDS011;66426;51.454;7.266;2023-01-09T03:04:42;1.45;;;0.75;;
77359;SDS011;66426;51.454;7.266;2023-01-09T03:05:51;1.33;;;1.08;;
77359;SDS011;66426;51.454;7.266;2023-01-09T03:06:57;1.10;;;0.82;;
77359;SDS011;66426;51.454;7.266;2023-01-09T03:08:02;2.45;;;0.88;;
77359;SDS011;66426;51.454;7.266;2023-01-09T03:09:06;4.00;;;1.15;;
77359;SDS011;66426;51.454;7.266;2023-01-09T03:10:13;2.60;;;0.95;;
77359;SDS011;66426;51.454;7.266;2023-01-09T03:11:17;0.75;;;0.75;;
77359;SDS011;66426;51.454;7.266;2023-01-09T03:12:22;1.52;;;1.00;;
77359;SDS011;66426;51.454;7.266;2023-01-09T03:13:28;1.95;;;1.00;;
77359;SDS011;66426;51.454;7.266;2023-01-09T03:14:33;1.60;;;1.30;;
77359;SDS011;66426;51.454;7.266;2023-01-09T03:15:38;2.90;;;1.30;;
77359;SDS011;66426;51.454;7.266;2023-01-09T03:16:40;1.80;;;1.00;;
77359;SDS011;66426;51.454;7.266;2023-01-09T03:17:47;1.00;;;0.75;;
77359;SDS011;66426;51.454;7.266;2023-01-09T03:18:51;0.73;;;0.73;;
77359;SDS011;66426;51.454;7.266;2023-01-09T03:19:54;1.13;;;1.02;;
77359;SDS011;66426;51.454;7.266;2023-01-09T03:20:57;1.10;;;1.00;;
77359;SDS011;66426;51.454;7.266;2023-01-09T03:21:58;1.95;;;0.90;;
77359;SDS011;66426;51.454;7.266;2023-01-09T03:23:00;1.38;;;1.25;;
77359;SDS011;66426;51.454;7.266;2023-01-09T03:24:03;2.75;;;1.15;;
77359;SDS011;66426;51.454;7.266;2023-01-09T03:25:05;1.48;;;0.70;;
77359;SDS011;66426;51.454;7.266;2023-01-09T03:26:08;1.02;;;1.00;;
77359;SDS011;66426;51.454;7.266;2023-01-09T03:27:10;1.20;;;0.98;;
77359;SDS011;66426;51.454;7.266;2023-01-09T03:28:16;0.88;;;0.63;;
77359;SDS011;66426;51.454;7.266;2023-01-09T03:29:24;1.08;;;1.00;;
77359;SDS011;66426;51.454;7.266;2023-01-09T03:30:25;1.30;;;1.15;;
77359;SDS011;66426;51.454;7.266;2023-01-09T03:31:28;2.17;;;0.90;;
77359;SDS011;66426;51.454;7.266;2023-01-09T03:32:29;2.58;;;1.20;;
77359;SDS011;66426;51.454;7.266;2023-01-09T03:33:31;1.92;;;1.35;;
77359;SDS011;66426;51.454;7.266;2023-01-09T03:34:32;1.67;;;1.30;;
77359;SDS011;66426;51.454;7.266;2023-01-09T03:35:33;1.35;;;1.20;;
77359;SDS011;66426;51.454;7.266;2023-01-09T03:36:34;2.15;;;1.00;;
77359;SDS011;66426;51.454;7.266;2023-01-09T03:37:35;2.83;;;1.40;;
77359;SDS011;66426;51.454;7.266;2023-01-09T03:38:36;4.97;;;1.50;;
77359;SDS011;66426;51.454;7.266;2023-01-09T03:39:37;2.15;;;1.48;;
77359;SDS011;66426;51.454;7.266;2023-01-09T03:40:38;3.08;;;1.50;;
77359;SDS011;66426;51.454;7.266;2023-01-09T03:41:42;2.67;;;1.38;;
77359;SDS011;66426;51.454;7.266;2023-01-09T03:42:43;1.73;;;1.20;;
77359;SDS011;66426;51.454;7.266;2023-01-09T03:43:44;3.33;;;1.45;;
77359;SDS011;66426;51.454;7.266;2023-01-09T03:44:47;1.40;;;1.25;;
77359;SDS011;66426;51.454;7.266;2023-01-09T03:45:50;1.50;;;1.40;;
77359;SDS011;66426;51.454;7.266;2023-01-09T03:46:51;2.13;;;1.60;;
77359;SDS011;66426;51.454;7.266;2023-01-09T03:47:52;2.58;;;1.30;;
77359;SDS011;66426;51.454;7.266;2023-01-09T03:48:54;1.70;;;1.00;;
77359;SDS011;66426;51.454;7.266;2023-01-09T03:49:55;2.15;;;1.52;;
77359;SDS011;66426;51.454;7.266;2023-01-09T03:50:56;3.30;;;1.40;;
77359;SDS011;66426;51.454;7.266;2023-01-09T03:51:58;4.43;;;1.65;;
77359;SDS011;66426;51.454;7.266;2023-01-09T03:52:59;2.80;;;1.35;;
77359;SDS011;66426;51.454;7.266;2023-01-09T03:54:00;1.75;;;1.17;;
77359;SDS011;66426;51.454;7.266;2023-01-09T03:55:01;1.35;;;1.25;;
77359;SDS011;66426;51.454;7.266;2023-01-09T03:56:02;1.88;;;1.33;;
77359;SDS011;66426;51.454;7.266;2023-01-09T03:57:03;1.60;;;1.40;;
77359;SDS011;66426;51.454;7.266;2023-01-09T03:58:04;2.53;;;1.20;;
77359;SDS011;66426;51.454;7.266;2023-01-09T03:59:05;2.25;;;1.42;;
77359;SDS011;66426;51.454;7.266;2023-01-09T04:00:06;2.38;;;1.63;;
77359;SDS011;66426;51.454;7.266;2023-01-09T04:01:09;1.30;;;1.20;;
77359;SDS011;66426;51.454;7.266;2023-01-09T04:02:12;2.47;;;1.42;;
77359;SDS011;66426;51.454;7.266;2023-01-09T04:03:13;1.95;;;1.58;;
77359;SDS011;66426;51.454;7.266;2023-01-09T04:04:16;1.88;;;1.30;;
77359;SDS011;66426;51.454;7.266;2023-01-09T04:05:17;3.33;;;1.20;;
77359;SDS011;66426;51.454;7.266;2023-01-09T04:06:18;2.35;;;1.50;;
77359;SDS011;66426;51.454;7.266;2023-01-09T04:07:19;2.22;;;1.50;;
77359;SDS011;66426;51.454;7.266;2023-01-09T04:08:20;3.47;;;1.80;;
77359;SDS011;66426;51.454;7.266;2023-01-09T04:09:21;4.18;;;1.50;;
77359;SDS011;66426;51.454;7.266;2023-01-09T04:10:22;1.90;;;1.33;;
77359;SDS011;66426;51.454;7.266;2023-01-09T04:11:24;2.60;;;1.40;;
77359;SDS011;66426;51.454;7.266;2023-01-09T04:12:24;2.33;;;1.40;;
77359;SDS011;66426;51.454;7.266;2023-01-09T04:13:25;5.40;;;1.70;;
77359;SDS011;66426;51.454;7.266;2023-01-09T04:14:26;1.33;;;1.17;;
77359;SDS011;66426;51.454;7.266;2023-01-09T04:15:27;2.95;;;1.35;;
77359;SDS011;66426;51.454;7.266;2023-01-09T04:16:28;3.08;;;1.20;;
77359;SDS011;66426;51.454;7.266;2023-01-09T04:17:30;2.83;;;1.40;;
77359;SDS011;66426;51.454;7.266;2023-01-09T04:18:30;1.35;;;1.25;;
77359;SDS011;66426;51.454;7.266;2023-01-09T04:19:33;2.80;;;1.30;;
77359;SDS011;66426;51.454;7.266;2023-01-09T04:20:34;1.42;;;1.30;;
77359;SDS011;66426;51.454;7.266;2023-01-09T04:21:35;3.55;;;1.60;;
77359;SDS011;66426;51.454;7.266;2023-01-09T04:22:36;2.78;;;1.30;;
77359;SDS011;66426;51.454;7.266;2023-01-09T04:23:37;1.50;;;0.95;;
77359;SDS011;66426;51.454;7.266;2023-01-09T04:24:38;1.98;;;1.40;;
77359;SDS011;66426;51.454;7.266;2023-01-09T04:25:39;2.80;;;1.30;;
77359;SDS011;66426;51.454;7.266;2023-01-09T04:26:40;4.75;;;1.33;;
77359;SDS011;66426;51.454;7.266;2023-01-09T04:27:41;3.22;;;1.45;;
77359;SDS011;66426;51.454;7.266;2023-01-09T04:28:42;6.60;;;1.40;;
77359;SDS011;66426;51.454;7.266;2023-01-09T04:29:43;4.07;;;1.52;;
77359;SDS011;66426;51.454;7.266;2023-01-09T04:30:44;4.40;;;1.75;;
77359;SDS011;66426;51.454;7.266;2023-01-09T04:31:45;3.55;;;1.23;;
77359;SDS011;66426;51.454;7.266;2023-01-09T04:32:46;3.08;;;1.17;;
77359;SDS011;66426;51.454;7.266;2023-01-09T04:33:47;3.75;;;1.30;;
77359;SDS011;66426;51.454;7.266;2023-01-09T04:34:49;1.92;;;1.13;;
77359;SDS011;66426;51.454;7.266;2023-01-09T04:35:50;5.47;;;1.30;;
77359;SDS011;66426;51.454;7.266;2023-01-09T04:36:51;2.17;;;1.20;;
77359;SDS011;66426;51.454;7.266;2023-01-09T04:37:53;1.67;;;1.20;;
77359;SDS011;66426;51.454;7.266;2023-01-09T04:38:54;1.83;;;1.33;;
77359;SDS011;66426;51.454;7.266;2023-01-09T04:39:55;3.22;;;1.20;;
77359;SDS011;66426;51.454;7.266;2023-01-09T04:40:56;2.30;;;1.25;;
77359;SDS011;66426;51.454;7.266;2023-01-09T04:41:58;2.55;;;1.27;;
77359;SDS011;66426;51.454;7.266;2023-01-09T04:42:59;1.30;;;1.10;;
77359;SDS011;66426;51.454;7.266;2023-01-09T04:44:00;3.33;;;1.20;;
77359;SDS011;66426;51.454;7.266;2023-01-09T04:45:01;2.28;;;1.20;;
77359;SDS011;66426;51.454;7.266;2023-01-09T04:46:02;6.10;;;1.35;;
77359;SDS011;66426;51.454;7.266;2023-01-09T04:47:03;2.42;;;1.30;;
77359;SDS011;66426;51.454;7.266;2023-01-09T04:48:05;1.45;;;1.23;;
77359;SDS011;66426;51.454;7.266;2023-01-09T04:49:06;4.85;;;1.40;;
77359;SDS011;66426;51.454;7.266;2023-01-09T04:50:09;2.28;;;1.42;;
77359;SDS011;66426;51.454;7.266;2023-01-09T04:51:11;3.83;;;1.40;;
77359;SDS011;66426;51.454;7.266;2023-01-09T04:52:12;2.88;;;1.35;;
77359;SDS011;66426;51.454;7.266;2023-01-09T04:53:13;4.32;;;1.30;;
77359;SDS011;66426;51.454;7.266;2023-01-09T04:54:14;2.42;;;0.98;;
77359;SDS011;66426;51.454;7.266;2023-01-09T04:55:15;3.72;;;1.20;;
77359;SDS011;66426;51.454;7.266;2023-01-09T04:56:16;2.70;;;1.30;;
77359;SDS011;66426;51.454;7.266;2023-01-09T04:57:17;4.63;;;1.30;;
77359;SDS011;66426;51.454;7.266;2023-01-09T04:58:18;3.25;;;1.60;;
77359;SDS011;66426;51.454;7.266;2023-01-09T04:59:19;3.33;;;1.10;;
77359;SDS011;66426;51.454;7.266;2023-01-09T05:00:20;2.90;;;1.20;;
77359;SDS011;66426;51.454;7.266;2023-01-09T05:01:22;2.70;;;1.15;;
77359;SDS011;66426;51.454;7.266;2023-01-09T05:02:23;4.10;;;1.23;;
77359;SDS011;66426;51.454;7.266;2023-01-09T05:03:24;3.92;;;1.48;;
77359;SDS011;66426;51.454;7.266;2023-01-09T05:04:25;1.58;;;1.20;;
77359;SDS011;66426;51.454;7.266;2023-01-09T05:05:27;5.90;;;1.25;;
77359;SDS011;66426;51.454;7.266;2023-01-09T05:06:28;2.58;;;1.45;;
77359;SDS011;66426;51.454;7.266;2023-01-09T05:07:30;7.93;;;1.45;;
77359;SDS011;66426;51.454;7.266;2023-01-09T05:08:31;1.98;;;0.95;;
77359;SDS011;66426;51.454;7.266;2023-01-09T05:09:32;3.55;;;1.25;;
77359;SDS011;66426;51.454;7.266;2023-01-09T05:10:33;3.55;;;1.58;;
77359;SDS011;66426;51.454;7.266;2023-01-09T05:11:34;4.47;;;1.30;;
77359;SDS011;66426;51.454;7.266;2023-01-09T05:12:35;2.30;;;1.38;;
77359;SDS011;66426;51.454;7.266;2023-01-09T05:13:36;4.30;;;1.10;;
77359;SDS011;66426;51.454;7.266;2023-01-09T05:14:37;1.65;;;1.10;;
77359;SDS011;66426;51.454;7.266;2023-01-09T05:15:38;2.65;;;1.38;;
77359;SDS011;66426;51.454;7.266;2023-01-09T05:16:39;4.50;;;2.05;;
77359;SDS011;66426;51.454;7.266;2023-01-09T05:17:40;3.28;;;1.10;;
77359;SDS011;66426;51.454;7.266;2023-01-09T05:18:41;2.70;;;1.20;;
77359;SDS011;66426;51.454;7.266;2023-01-09T05:19:42;1.85;;;1.20;;
77359;SDS011;66426;51.454;7.266;2023-01-09T05:20:46;2.30;;;1.33;;
77359;SDS011;66426;51.454;7.266;2023-01-09T05:21:47;3.17;;;1.20;;
77359;SDS011;66426;51.454;7.266;2023-01-09T05:22:48;2.05;;;1.20;;
77359;SDS011;66426;51.454;7.266;2023-01-09T05:23:49;3.28;;;1.30;;
77359;SDS011;66426;51.454;7.266;2023-01-09T05:24:50;2.38;;;1.50;;
77359;SDS011;66426;51.454;7.266;2023-01-09T05:25:51;3.83;;;1.48;;
77359;SDS011;66426;51.454;7.266;2023-01-09T05:26:52;3.25;;;1.60;;
77359;SDS011;66426;51.454;7.266;2023-01-09T05:27:53;4.43;;;1.48;;
77359;SDS011;66426;51.454;7.266;2023-01-09T05:28:54;3.95;;;1.40;;
77359;SDS011;66426;51.454;7.266;2023-01-09T05:29:56;3.28;;;1.23;;
77359;SDS011;66426;51.454;7.266;2023-01-09T05:30:57;5.18;;;1.50;;
77359;SDS011;66426;51.454;7.266;2023-01-09T05:31:58;3.28;;;1.50;;
77359;SDS011;66426;51.454;7.266;2023-01-09T05:32:59;3.05;;;1.33;;
77359;SDS011;66426;51.454;7.266;2023-01-09T05:34:00;3.80;;;1.38;;
77359;SDS011;66426;51.454;7.266;2023-01-09T05:35:01;1.98;;;1.08;;
77359;SDS011;66426;51.454;7.266;2023-01-09T05:36:04;1.20;;;1.00;;
77359;SDS011;66426;51.454;7.266;2023-01-09T05:37:05;2.55;;;1.15;;
77359;SDS011;66426;51.454;7.266;2023-01-09T05:38:06;4.70;;;1.17;;
77359;SDS011;66426;51.454;7.266;2023-01-09T05:39:07;2.00;;;0.90;;
77359;SDS011;66426;51.454;7.266;2023-01-09T05:40:09;3.65;;;1.00;;
77359;SDS011;66426;51.454;7.266;2023-01-09T05:41:11;3.92;;;0.98;;
77359;SDS011;66426;51.454;7.266;2023-01-09T05:42:12;2.58;;;1.35;;
77359;SDS011;66426;51.454;7.266;2023-01-09T05:43:13;5.28;;;1.60;;
77359;SDS011;66426;51.454;7.266;2023-01-09T05:44:14;4.43;;;1.30;;
77359;SDS011;66426;51.454;7.266;2023-01-09T05:45:15;6.40;;;1.58;;
77359;SDS011;66426;51.454;7.266;2023-01-09T05:46:16;4.82;;;1.42;;
77359;SDS011;66426;51.454;7.266;2023-01-09T05:47:17;4.35;;;1.30;;
77359;SDS011;66426;51.454;7.266;2023-01-09T05:48:18;5.20;;;1.23;;
77359;SDS011;66426;51.454;7.266;2023-01-09T05:49:19;3.28;;;1.30;;
77359;SDS011;66426;51.454;7.266;2023-01-09T05:50:20;3.80;;;1.05;;
77359;SDS011;66426;51.454;7.266;2023-01-09T05:51:22;4.60;;;1.25;;
77359;SDS011;66426;51.454;7.266;2023-01-09T05:52:23;3.90;;;1.35;;
77359;SDS011;66426;51.454;7.266;2023-01-09T05:53:24;3.13;;;1.35;;
77359;SDS011;66426;51.454;7.266;2023-01-09T05:54:25;1.15;;;0.73;;
77359;SDS011;66426;51.454;7.266;2023-01-09T05:55:26;3.42;;;1.38;;
77359;SDS011;66426;51.454;7.266;2023-01-09T05:56:27;3.35;;;1.30;;
77359;SDS011;66426;51.454;7.266;2023-01-09T05:57:29;6.20;;;1.23;;
77359;SDS011;66426;51.454;7.266;2023-01-09T05:58:30;2.95;;;1.10;;
77359;SDS011;66426;51.454;7.266;2023-01-09T05:59:31;2.15;;;1.27;;
77359;SDS011;66426;51.454;7.266;2023-01-09T06:00:32;2.78;;;0.90;;
77359;SDS011;66426;51.454;7.266;2023-01-09T06:01:33;4.90;;;1.20;;
77359;SDS011;66426;51.454;7.266;2023-01-09T06:02:34;5.43;;;1.65;;
77359;SDS011;66426;51.454;7.266;2023-01-09T06:03:35;2.17;;;1.10;;
77359;SDS011;66426;51.454;7.266;2023-01-09T06:04:36;5.65;;;1.20;;
77359;SDS011;66426;51.454;7.266;2023-01-09T06:05:37;2.15;;;0.93;;
77359;SDS011;66426;51.454;7.266;2023-01-09T06:06:39;7.03;;;1.95;;
77359;SDS011;66426;51.454;7.266;2023-01-09T06:07:41;2.08;;;1.30;;
77359;SDS011;66426;51.454;7.266;2023-01-09T06:08:42;2.13;;;1.15;;
77359;SDS011;66426;51.454;7.266;2023-01-09T06:09:43;1.88;;;1.00;;
77359;SDS011;66426;51.454;7.266;2023-01-09T06:10:44;3.50;;;0.95;;
77359;SDS011;66426;51.454;7.266;2023-01-09T06:11:45;1.83;;;0.88;;
77359;SDS011;66426;51.454;7.266;2023-01-09T06:12:46;1.38;;;0.95;;
77359;SDS011;66426;51.454;7.266;2023-01-09T06:13:48;2.20;;;1.00;;
77359;SDS011;66426;51.454;7.266;2023-01-09T06:14:49;5.05;;;1.13;;
77359;SDS011;66426;51.454;7.266;2023-01-09T06:15:50;6.28;;;1.30;;
77359;SDS011;66426;51.454;7.266;2023-01-09T06:16:51;4.60;;;1.10;;
77359;SDS011;66426;51.454;7.266;2023-01-09T06:17:52;6.35;;;2.05;;
77359;SDS011;66426;51.454;7.266;2023-01-09T06:18:53;3.17;;;1.17;;
77359;SDS011;66426;51.454;7.266;2023-01-09T06:19:54;3.70;;;1.05;;
77359;SDS011;66426;51.454;7.266;2023-01-09T06:20:55;4.03;;;1.55;;
77359;SDS011;66426;51.454;7.266;2023-01-09T06:21:58;3.10;;;1.20;;
77359;SDS011;66426;51.454;7.266;2023-01-09T06:22:59;4.53;;;1.00;;
77359;SDS011;66426;51.454;7.266;2023-01-09T06:24:00;2.97;;;1.00;;
77359;SDS011;66426;51.454;7.266;2023-01-09T06:25:01;2.72;;;0.90;;